Time;durP1;ratioP1;P1;durP2;ratioP2;P2;SDS_P1;SDS_P2;PMS_P1;PMS_P2;Temp;Humidity;BMP_temperature;BMP_pressure;BME280_temperature;BME280_humidity;BME280_pressure;Samples;Min_cycle;Max_cycle;Signal;HPM_P1;HPM_P2
2022/05/23 00:00:39;;;;;;;5.43;2.50;;;;;;;12.20;100.00;100162.41;6256134;28;20063;-88
2022/05/23 00:03:40;;;;;;;4.38;2.72;;;;;;;12.19;100.00;100144.34;6246850;28;20033;-87
2022/05/23 00:06:43;;;;;;;3.58;2.90;;;;;;;12.17;100.00;100148.88;6242124;28;20037;-88
2022/05/23 00:09:45;;;;;;;3.55;2.90;;;;;;;12.18;100.00;100147.94;6243009;28;20037;-87
2022/05/23 00:12:47;;;;;;;4.22;2.60;;;;;;;12.15;100.00;100153.38;6243171;28;20491;-87
2022/05/23 00:15:49;;;;;;;4.00;2.85;;;;;;;12.10;100.00;100135.66;6243640;28;20042;-87
2022/05/23 00:18:51;;;;;;;4.32;2.70;;;;;;;12.04;100.00;100131.84;6227624;28;20041;-87
2022/05/23 00:21:52;;;;;;;6.13;2.75;;;;;;;12.03;100.00;100142.38;6252545;28;20490;-87
2022/05/23 00:24:54;;;;;;;3.30;2.70;;;;;;;11.95;100.00;100145.66;6256262;28;20045;-88
2022/05/23 00:28:00;;;;;;;4.95;2.70;;;;;;;11.89;100.00;100135.81;6258509;28;20041;-87
2022/05/23 00:31:02;;;;;;;4.28;2.70;;;;;;;11.94;100.00;100128.44;6240273;28;20049;-87
2022/05/23 00:37:24;;;;;;;6.22;2.90;;;;;;;11.87;100.00;100131.75;6247180;28;20045;-87
2022/05/23 00:40:33;;;;;;;4.53;3.20;;;;;;;11.83;100.00;100138.97;6236170;28;20041;-88
2022/05/23 00:43:35;;;;;;;3.35;2.75;;;;;;;11.79;100.00;100138.41;6256126;28;20042;-87
2022/05/23 00:46:58;;;;;;;3.72;2.40;;;;;;;11.75;100.00;100138.81;6252296;28;20048;-88
2022/05/23 00:50:01;;;;;;;3.47;2.90;;;;;;;11.78;100.00;100129.00;6255187;28;20494;-87
2022/05/23 00:53:03;;;;;;;5.00;3.00;;;;;;;11.70;100.00;100123.69;6253308;28;20410;-88
2022/05/23 00:56:08;;;;;;;5.28;2.90;;;;;;;11.59;100.00;100111.69;6227999;28;20505;-88
2022/05/23 00:59:14;;;;;;;7.30;2.97;;;;;;;11.56;100.00;100117.16;6252606;28;20127;-88
2022/05/23 01:02:18;;;;;;;4.40;2.92;;;;;;;11.55;100.00;100120.69;6239051;28;20045;-88
2022/05/23 01:05:21;;;;;;;3.05;2.72;;;;;;;11.56;100.00;100116.34;6253521;28;20040;-88
2022/05/23 01:08:23;;;;;;;4.05;2.70;;;;;;;11.56;100.00;100118.94;6242836;28;20049;-87
2022/05/23 01:11:25;;;;;;;4.53;2.85;;;;;;;11.54;100.00;100113.06;6237477;28;20041;-88
2022/05/23 01:14:47;;;;;;;5.68;3.28;;;;;;;11.56;100.00;100099.00;6232720;28;20045;-87
2022/05/23 01:17:49;;;;;;;3.75;2.90;;;;;;;11.60;100.00;100096.94;6223499;28;21315;-87
2022/05/23 01:20:58;;;;;;;3.92;2.95;;;;;;;11.70;100.00;100091.75;6240855;28;20041;-87
2022/05/23 01:24:12;;;;;;;6.55;3.40;;;;;;;11.77;100.00;100098.81;6218490;28;20486;-87
2022/05/23 01:27:21;;;;;;;5.10;3.20;;;;;;;11.84;100.00;100086.13;6235109;28;20644;-87
2022/05/23 01:30:23;;;;;;;4.68;3.22;;;;;;;11.87;100.00;100079.88;6224799;28;20048;-88
2022/05/23 01:33:44;;;;;;;3.45;3.15;;;;;;;11.84;100.00;100076.56;6246679;28;20037;-87
2022/05/23 01:36:49;;;;;;;4.35;3.03;;;;;;;11.78;100.00;100092.69;6247210;28;20074;-88
2022/05/23 01:39:51;;;;;;;3.60;3.30;;;;;;;11.77;100.00;100085.03;6242612;28;20524;-87
2022/05/23 01:43:06;;;;;;;3.75;3.40;;;;;;;11.69;100.00;100075.38;6237479;28;20517;-88
2022/05/23 01:46:15;;;;;;;4.95;3.25;;;;;;;11.57;100.00;100074.69;6253691;28;20064;-88
2022/05/23 01:49:39;;;;;;;4.13;3.40;;;;;;;11.47;100.00;100068.72;6258012;28;20048;-87
2022/05/23 01:52:58;;;;;;;4.07;3.45;;;;;;;11.39;100.00;100059.03;6238010;28;20052;-87
2022/05/23 01:56:06;;;;;;;8.75;3.80;;;;;;;11.33;100.00;100057.00;6235382;28;20507;-88
2022/05/23 02:02:54;;;;;;;4.82;3.17;;;;;;;11.24;100.00;100044.88;6208944;28;20046;-87
2022/05/23 02:05:56;;;;;;;6.20;4.13;;;;;;;11.19;100.00;100036.69;6221128;28;20075;-87
2022/05/23 02:08:58;;;;;;;4.28;3.60;;;;;;;11.14;100.00;100028.53;6200038;28;20241;-88
2022/05/23 02:12:07;;;;;;;3.58;3.28;;;;;;;11.16;100.00;100034.38;6198498;28;20058;-87
2022/05/23 02:15:09;;;;;;;4.28;3.53;;;;;;;11.13;100.00;100017.34;6220912;28;20169;-87
2022/05/23 02:18:30;;;;;;;6.32;3.95;;;;;;;11.20;100.00;100009.81;6217845;28;20445;-87
2022/05/23 02:21:32;;;;;;;8.25;4.57;;;;;;;11.21;100.00;100007.09;6219719;28;20052;-87
2022/05/23 02:24:34;;;;;;;4.68;3.60;;;;;;;11.19;100.00;100016.78;6185736;28;20503;-88
2022/05/23 02:27:36;;;;;;;5.72;3.42;;;;;;;11.23;100.00;100009.56;6212494;28;20046;-87
2022/05/23 02:30:38;;;;;;;4.43;3.58;;;;;;;11.26;100.00;100005.88;6207647;28;20124;-88
2022/05/23 02:33:50;;;;;;;3.83;3.40;;;;;;;11.27;100.00;100003.13;6216840;28;20052;-87
2022/05/23 02:36:59;;;;;;;5.63;4.15;;;;;;;11.27;100.00;100012.69;6242237;28;20773;-87
2022/05/23 02:40:14;;;;;;;7.43;4.40;;;;;;;11.25;100.00;100018.00;6240202;28;20522;-88
2022/05/23 02:43:16;;;;;;;5.10;3.85;;;;;;;11.28;100.00;100017.75;6240796;28;20565;-88
2022/05/23 02:46:23;;;;;;;6.90;3.90;;;;;;;11.25;100.00;100022.38;6235043;28;21180;-87
2022/05/23 02:49:29;;;;;;;6.93;4.18;;;;;;;11.23;100.00;100032.88;6234662;28;20053;-87
2022/05/23 02:52:32;;;;;;;6.28;4.00;;;;;;;11.24;100.00;100020.75;6234830;28;20523;-87
2022/05/23 02:55:42;;;;;;;4.10;3.70;;;;;;;11.21;100.00;100024.44;6247425;28;20045;-87
2022/05/23 02:58:44;;;;;;;5.80;3.97;;;;;;;11.23;100.00;100022.53;6253284;28;20103;-87
2022/05/23 03:05:14;;;;;;;4.72;4.20;;;;;;;11.14;100.00;100028.53;6262680;28;20494;-88
2022/05/23 03:08:20;;;;;;;4.30;3.83;;;;;;;11.11;100.00;100029.63;6242547;28;20053;-87
2022/05/23 03:11:22;;;;;;;4.85;4.40;;;;;;;11.12;100.00;100022.66;6233121;28;20136;-88
2022/05/23 03:14:26;;;;;;;5.38;4.20;;;;;;;11.15;100.00;100030.16;6253127;28;20076;-87
2022/05/23 03:17:32;;;;;;;5.15;4.57;;;;;;;11.20;100.00;100028.81;6246952;28;20464;-87
2022/05/23 03:20:34;;;;;;;6.82;4.80;;;;;;;11.24;100.00;100016.38;6244418;28;20116;-87
2022/05/23 03:27:00;;;;;;;5.57;4.25;;;;;;;11.41;100.00;100001.91;6248924;28;20051;-88
2022/05/23 03:30:16;;;;;;;5.47;3.88;;;;;;;11.46;100.00;100001.50;6253767;28;20217;-87
2022/05/23 03:33:28;;;;;;;4.95;4.20;;;;;;;11.51;100.00;100009.66;6240324;28;20080;-88
2022/05/23 03:36:30;;;;;;;5.07;4.50;;;;;;;11.56;100.00;99997.09;6239768;28;20038;-87
2022/05/23 03:39:33;;;;;;;4.93;4.47;;;;;;;11.59;100.00;100007.19;6241999;28;20064;-88
2022/05/23 03:42:35;;;;;;;5.97;3.78;;;;;;;11.60;100.00;99998.44;6249290;28;20237;-87
2022/05/23 03:45:37;;;;;;;7.65;4.63;;;;;;;11.64;100.00;100003.19;6242941;28;20045;-88
2022/05/23 03:48:44;;;;;;;5.72;4.57;;;;;;;11.72;100.00;99999.91;6229184;28;20095;-88
2022/05/23 03:51:46;;;;;;;5.45;4.50;;;;;;;11.83;100.00;99991.13;6243702;28;20041;-87
2022/05/23 03:54:49;;;;;;;5.35;4.40;;;;;;;11.85;100.00;99992.63;6234897;28;20418;-87
2022/05/23 03:57:54;;;;;;;5.40;3.80;;;;;;;11.95;100.00;99984.84;6246843;28;20048;-88
2022/05/23 04:01:27;;;;;;;6.38;4.47;;;;;;;12.03;100.00;99981.53;6257418;28;20037;-87
2022/05/23 04:04:34;;;;;;;7.00;4.60;;;;;;;12.08;100.00;99968.94;6166522;28;20477;-88
2022/05/23 04:08:00;;;;;;;7.30;4.80;;;;;;;12.13;100.00;99965.91;6154551;28;20058;-87
2022/05/23 04:11:11;;;;;;;9.10;4.38;;;;;;;12.24;100.00;99958.72;6122246;29;20055;-87
2022/05/23 04:14:12;;;;;;;7.28;4.85;;;;;;;12.29;100.00;99951.31;6163256;28;20071;-88
2022/05/23 04:17:16;;;;;;;8.18;4.82;;;;;;;12.41;100.00;99948.53;6148407;28;20050;-87
2022/05/23 04:20:21;;;;;;;7.30;4.97;;;;;;;12.51;100.00;99944.09;6147104;28;20531;-87
2022/05/23 04:23:39;;;;;;;6.70;4.47;;;;;;;12.63;100.00;99934.28;6164200;28;20062;-88
2022/05/23 04:26:41;;;;;;;5.05;4.35;;;;;;;12.73;100.00;99944.59;6163848;28;20475;-87
2022/05/23 04:29:45;;;;;;;5.45;4.57;;;;;;;12.86;100.00;99935.44;6147421;28;20456;-87
2022/05/23 04:36:22;;;;;;;6.50;4.40;;;;;;;13.11;100.00;99920.84;6147608;28;20054;-87
2022/05/23 04:39:24;;;;;;;6.15;4.47;;;;;;;13.23;100.00;99925.81;6169103;28;20065;-87
2022/05/23 04:42:26;;;;;;;6.97;4.47;;;;;;;13.34;100.00;99918.59;6243646;28;20045;-87
2022/05/23 04:45:29;;;;;;;5.90;4.78;;;;;;;13.44;100.00;99915.06;6239756;28;20049;-87
2022/05/23 04:52:29;;;;;;;6.78;4.60;;;;;;;13.73;100.00;99899.09;6198833;28;20058;-87
2022/05/23 04:55:33;;;;;;;8.10;5.13;;;;;;;13.84;100.00;99901.44;6183054;28;20046;-87
2022/05/23 04:58:35;;;;;;;5.45;4.38;;;;;;;13.99;100.00;99893.84;6195838;28;20547;-87
2022/05/23 05:01:39;;;;;;;8.07;4.53;;;;;;;14.07;100.00;99886.03;6191190;28;20594;-87
2022/05/23 05:04:41;;;;;;;8.80;4.38;;;;;;;14.19;100.00;99883.97;6211370;28;20112;-87
2022/05/23 05:07:44;;;;;;;5.50;4.43;;;;;;;14.22;100.00;99876.63;6192331;28;20077;-87
2022/05/23 05:10:46;;;;;;;4.95;4.50;;;;;;;14.30;100.00;99873.22;6190422;28;20045;-86
2022/05/23 05:13:48;;;;;;;5.35;4.70;;;;;;;14.32;100.00;99871.28;6195604;28;20490;-87
2022/05/23 05:16:50;;;;;;;5.88;5.18;;;;;;;14.40;100.00;99860.84;6208035;28;20541;-87
2022/05/23 05:19:54;;;;;;;8.45;5.00;;;;;;;14.50;100.00;99836.44;6190971;28;20108;-87
2022/05/23 05:23:14;;;;;;;6.93;4.90;;;;;;;14.58;100.00;99839.91;6208158;28;20057;-87
2022/05/23 05:26:25;;;;;;;7.55;4.43;;;;;;;14.59;100.00;99838.09;6229191;28;20570;-87
2022/05/23 05:29:27;;;;;;;6.53;4.65;;;;;;;14.63;100.00;99828.97;6234577;28;20053;-88
2022/05/23 05:33:10;;;;;;;6.25;4.53;;;;;;;14.60;100.00;99822.28;6243924;28;20053;-88
2022/05/23 05:36:19;;;;;;;6.85;4.40;;;;;;;14.62;100.00;99817.75;6237990;28;20049;-87
2022/05/23 05:39:26;;;;;;;10.05;4.70;;;;;;;14.57;100.00;99819.22;6240454;28;20072;-87
2022/05/23 05:42:38;;;;;;;6.85;4.72;;;;;;;14.50;100.00;99819.03;6256277;28;20040;-87
2022/05/23 05:45:46;;;;;;;5.13;4.07;;;;;;;14.41;100.00;99813.03;6257153;28;20707;-87
2022/05/23 05:49:28;;;;;;;5.30;4.13;;;;;;;14.36;100.00;99815.31;6171707;28;20744;-87
2022/05/23 05:52:38;;;;;;;4.88;3.63;;;;;;;14.30;100.00;99813.34;6162278;28;20062;-87
2022/05/23 05:55:42;;;;;;;5.28;4.07;;;;;;;14.33;100.00;99810.41;6159173;28;20050;-88
2022/05/23 05:58:45;;;;;;;5.18;3.42;;;;;;;14.37;100.00;99813.50;6178639;28;20043;-87
2022/05/23 06:01:49;;;;;;;6.05;4.20;;;;;;;14.42;100.00;99811.22;6183927;28;20058;-87
2022/05/23 06:04:52;;;;;;;5.35;4.10;;;;;;;14.54;100.00;99802.13;6166507;28;20775;-87
2022/05/23 06:11:41;;;;;;;5.53;4.32;;;;;;;14.93;100.00;99808.41;6141399;28;20453;-87
2022/05/23 06:14:55;;;;;;;6.20;4.53;;;;;;;15.02;100.00;99810.81;6141233;28;20652;-87
2022/05/23 06:17:58;;;;;;;5.88;4.13;;;;;;;15.12;100.00;99809.81;6156485;28;20105;-87
2022/05/23 06:21:00;;;;;;;5.68;4.15;;;;;;;15.19;100.00;99810.78;6157797;28;20057;-87
2022/05/23 06:24:02;;;;;;;4.30;3.67;;;;;;;15.30;100.00;99810.38;6185379;28;20069;-87
2022/05/23 06:27:13;;;;;;;5.85;4.00;;;;;;;15.35;100.00;99802.06;6199731;28;20133;-87
2022/05/23 06:30:34;;;;;;;5.85;3.92;;;;;;;15.48;100.00;99794.53;6212326;28;20524;-87
2022/05/23 06:33:57;;;;;;;6.60;3.80;;;;;;;15.62;100.00;99791.16;6191232;28;20136;-88
2022/05/23 06:37:00;;;;;;;4.00;3.60;;;;;;;15.74;100.00;99789.00;6212080;28;20119;-87
2022/05/23 06:40:04;;;;;;;4.72;4.00;;;;;;;15.79;100.00;99768.41;6178501;28;20504;-87
2022/05/23 06:43:06;;;;;;;7.32;3.70;;;;;;;15.88;100.00;99763.97;6237758;28;20064;-88
2022/05/23 06:46:32;;;;;;;4.80;3.80;;;;;;;15.90;100.00;99762.81;6225473;28;20057;-88
2022/05/23 06:49:59;;;;;;;6.40;3.60;;;;;;;16.00;100.00;99754.75;6230595;28;20809;-87
2022/05/23 06:53:22;;;;;;;5.53;4.10;;;;;;;16.03;99.64;99749.16;6256427;28;20085;-87
2022/05/23 06:56:51;;;;;;;4.30;3.38;;;;;;;16.04;98.27;99758.59;6235244;28;20049;-87
2022/05/23 06:59:58;;;;;;;7.90;3.90;;;;;;;16.00;98.48;99759.97;6227806;28;20052;-87
2022/05/23 07:03:00;;;;;;;6.43;3.80;;;;;;;15.97;99.07;99757.69;6237382;28;20075;-87
2022/05/23 07:12:58;;;;;;;5.07;3.72;;;;;;;16.20;99.97;99754.22;6232017;28;20391;-88
2022/05/23 07:16:03;;;;;;;5.13;4.20;;;;;;;16.35;99.90;99747.25;6232522;28;20619;-88
2022/05/23 07:19:07;;;;;;;4.40;3.42;;;;;;;16.52;97.58;99740.88;6232681;28;20097;-88
2022/05/23 07:22:19;;;;;;;4.53;3.63;;;;;;;16.61;94.64;99749.44;6218969;28;20061;-87
2022/05/23 07:25:21;;;;;;;5.47;3.40;;;;;;;16.69;96.93;99743.31;6237881;28;20049;-87
2022/05/23 07:28:23;;;;;;;5.05;3.40;;;;;;;16.76;96.84;99742.41;6256283;28;20037;-87
2022/05/23 07:31:29;;;;;;;6.97;3.72;;;;;;;16.81;97.08;99741.09;6239955;28;20083;-87
2022/05/23 07:34:31;;;;;;;4.10;3.58;;;;;;;16.85;95.29;99737.94;6232189;28;20065;-87
2022/05/23 07:37:33;;;;;;;3.88;3.03;;;;;;;16.91;92.81;99731.16;6232652;28;20045;-87
2022/05/23 07:40:37;;;;;;;4.93;3.47;;;;;;;16.97;93.08;99722.63;6252308;28;20052;-87
2022/05/23 07:43:45;;;;;;;5.78;3.70;;;;;;;17.01;95.13;99726.47;6257611;28;20501;-87
2022/05/23 07:46:47;;;;;;;5.35;3.40;;;;;;;17.07;94.59;99725.75;6240283;28;20602;-87
2022/05/23 07:49:51;;;;;;;3.88;3.30;;;;;;;17.17;93.48;99720.22;6231264;28;20065;-87
2022/05/23 08:03:17;;;;;;;6.88;3.90;;;;;;;17.73;93.46;99709.91;6236727;28;20036;-88
2022/05/23 08:06:38;;;;;;;6.45;3.42;;;;;;;17.79;90.45;99703.94;6264200;28;20048;-87
2022/05/23 08:09:40;;;;;;;5.07;3.53;;;;;;;17.85;89.17;99695.34;6228897;28;20037;-87
2022/05/23 08:12:58;;;;;;;4.65;3.60;;;;;;;17.97;87.67;99695.66;6227462;28;20045;-87
2022/05/23 08:16:01;;;;;;;5.03;3.42;;;;;;;18.16;86.38;99683.72;6236128;28;20061;-87
2022/05/23 08:19:05;;;;;;;4.85;3.33;;;;;;;18.36;83.94;99689.06;6237843;28;20159;-87
2022/05/23 08:22:07;;;;;;;5.72;3.63;;;;;;;18.49;83.14;99683.91;6241345;28;20495;-87
2022/05/23 08:25:13;;;;;;;6.38;3.95;;;;;;;18.65;81.50;99687.19;6227841;28;20058;-87
2022/05/23 08:28:25;;;;;;;5.30;3.40;;;;;;;18.83;81.50;99684.06;6220308;28;20088;-87
2022/05/23 08:31:27;;;;;;;6.35;3.55;;;;;;;19.01;82.25;99684.38;6234766;28;20052;-87
2022/05/23 08:34:42;;;;;;;5.88;3.35;;;;;;;19.19;78.68;99685.63;6240722;28;20087;-87
2022/05/23 08:37:47;;;;;;;4.75;3.45;;;;;;;19.28;78.98;99687.06;6241399;28;20067;-87
2022/05/23 08:41:12;;;;;;;4.45;4.05;;;;;;;19.37;79.26;99680.59;6264330;28;20053;-87
2022/05/23 08:44:39;;;;;;;5.25;3.40;;;;;;;19.48;78.45;99679.22;6249427;28;20053;-87
2022/05/23 08:47:55;;;;;;;5.90;3.80;;;;;;;19.67;80.26;99680.25;6258935;28;20049;-87
2022/05/23 08:51:18;;;;;;;7.13;4.03;;;;;;;19.85;77.15;99680.50;6239481;28;20064;-87
2022/05/23 08:54:37;;;;;;;3.60;3.30;;;;;;;20.03;78.20;99673.81;6243351;28;20056;-86
2022/05/23 08:58:07;;;;;;;6.32;4.00;;;;;;;20.30;74.70;99674.59;6260940;28;20041;-87
2022/05/23 09:01:14;;;;;;;5.50;3.55;;;;;;;20.51;76.56;99666.41;6262033;28;20064;-87
2022/05/23 09:04:45;;;;;;;9.25;4.07;;;;;;;20.68;74.59;99673.88;6253366;28;20055;-86
2022/05/23 09:08:17;;;;;;;5.30;3.60;;;;;;;20.74;74.41;99662.53;6239509;28;20040;-87
2022/05/23 09:11:35;;;;;;;6.65;3.53;;;;;;;20.88;72.20;99660.66;6261337;28;20056;-87
2022/05/23 09:14:38;;;;;;;5.50;3.97;;;;;;;21.05;72.24;99657.31;6249859;28;20425;-87
2022/05/23 09:17:45;;;;;;;5.63;3.80;;;;;;;21.24;72.33;99646.88;6241574;28;20139;-87
2022/05/23 09:20:50;;;;;;;7.00;4.03;;;;;;;21.36;71.25;99637.25;6260223;28;20051;-87
2022/05/23 09:23:52;;;;;;;6.03;3.72;;;;;;;21.46;71.91;99629.72;6252538;28;20080;-86
2022/05/23 09:26:58;;;;;;;5.13;4.13;;;;;;;21.67;68.90;99620.66;6258648;28;20399;-87
2022/05/23 09:30:01;;;;;;;6.28;4.13;;;;;;;21.88;68.17;99619.44;6261799;28;20123;-87
2022/05/23 09:33:13;;;;;;;7.03;3.75;;;;;;;22.17;70.66;99611.06;6243090;28;21277;-87
2022/05/23 09:36:35;;;;;;;6.65;3.67;;;;;;;22.47;68.47;99608.50;6264154;28;20066;-87
2022/05/23 09:39:50;;;;;;;5.70;3.85;;;;;;;22.67;67.40;99592.44;6232458;28;20424;-87
2022/05/23 09:49:56;;;;;;;8.63;3.40;;;;;;;23.22;64.29;99576.41;6250734;28;20045;-86
2022/05/23 09:53:01;;;;;;;4.80;3.72;;;;;;;23.40;64.15;99571.06;6257490;28;20052;-87
2022/05/23 09:56:29;;;;;;;6.85;4.00;;;;;;;23.59;61.44;99568.31;6237573;28;20166;-87
2022/05/23 09:59:37;;;;;;;6.80;4.43;;;;;;;23.75;63.60;99569.47;6249202;28;20052;-87
2022/05/23 10:02:57;;;;;;;9.18;4.90;;;;;;;23.89;61.38;99559.47;6229682;28;20053;-87
2022/05/23 10:06:11;;;;;;;5.95;4.20;;;;;;;23.93;63.08;99565.91;6246526;28;20043;-87
2022/05/23 10:09:54;;;;;;;5.20;4.05;;;;;;;24.04;60.02;99554.47;6239725;28;20045;-86
2022/05/23 10:13:29;;;;;;;6.65;4.63;;;;;;;24.14;60.63;99546.75;6143182;28;20732;-87
2022/05/23 10:16:44;;;;;;;5.53;4.20;;;;;;;24.25;58.01;99545.94;6159798;28;20149;-87
2022/05/23 10:19:46;;;;;;;6.68;4.68;;;;;;;24.29;58.31;99541.75;6157243;28;20057;-87
2022/05/23 10:23:12;;;;;;;7.90;4.68;;;;;;;24.35;59.50;99540.03;6159339;28;20054;-86
2022/05/23 10:26:23;;;;;;;6.45;4.57;;;;;;;24.32;57.30;99542.31;6159672;28;20212;-87
2022/05/23 10:29:51;;;;;;;9.20;4.68;;;;;;;24.28;56.97;99534.06;6159963;28;20643;-87
2022/05/23 10:33:00;;;;;;;5.70;4.40;;;;;;;24.22;58.16;99527.06;6160748;28;20408;-86
2022/05/23 10:36:16;;;;;;;6.72;4.07;;;;;;;24.20;58.71;99514.09;6149527;28;20468;-87
2022/05/23 10:42:53;;;;;;;5.60;4.25;;;;;;;24.19;55.42;99501.91;6145870;28;20336;-87
2022/05/23 10:46:03;;;;;;;5.25;3.50;;;;;;;24.22;59.01;99500.63;6159097;28;20119;-87
2022/05/23 10:49:30;;;;;;;7.18;4.00;;;;;;;24.34;59.17;99504.03;6205204;28;20234;-86
2022/05/23 10:52:47;;;;;;;6.07;3.80;;;;;;;24.52;56.49;99489.03;6256794;28;20065;-87
2022/05/23 10:56:40;;;;;;;5.35;4.15;;;;;;;24.46;56.97;99488.13;6256235;28;20045;-87
2022/05/23 10:59:42;;;;;;;6.95;4.28;;;;;;;24.49;55.53;99490.28;6128442;28;20448;-87
2022/05/23 11:03:09;;;;;;;6.47;3.75;;;;;;;24.55;55.86;99486.72;6135014;28;20501;-87
2022/05/23 11:06:45;;;;;;;6.45;3.65;;;;;;;24.63;57.18;99488.16;6140762;28;20646;-87
2022/05/23 11:10:00;;;;;;;4.97;3.67;;;;;;;24.74;54.18;99481.19;6136106;28;20075;-87
2022/05/23 11:13:45;;;;;;;6.72;3.85;;;;;;;24.98;54.54;99472.03;6118799;29;20051;-87
2022/05/23 11:17:10;;;;;;;6.90;3.60;;;;;;;24.91;55.37;99466.91;6133233;28;20047;-87
2022/05/23 11:20:26;;;;;;;5.03;3.33;;;;;;;24.83;57.95;99461.22;6136350;29;20544;-87
2022/05/23 11:23:41;;;;;;;5.97;3.88;;;;;;;24.84;56.05;99454.88;6132511;29;20684;-87
2022/05/23 11:26:49;;;;;;;5.93;3.58;;;;;;;24.67;55.40;99449.56;6130584;28;20078;-87
2022/05/23 11:40:10;;;;;;;5.90;3.70;;;;;;;24.67;59.98;99436.34;6177128;28;20054;-87
2022/05/23 11:43:21;;;;;;;5.97;3.35;;;;;;;24.75;57.42;99443.09;6165299;28;20138;-86
2022/05/23 11:46:47;;;;;;;6.90;4.13;;;;;;;25.01;57.93;99434.47;6184668;28;20050;-87
2022/05/23 11:50:05;;;;;;;6.25;3.40;;;;;;;25.41;56.81;99427.38;6189046;28;20056;-87
2022/05/23 11:53:13;;;;;;;5.60;3.20;;;;;;;25.67;55.38;99425.84;6252284;28;20490;-87
2022/05/23 11:56:36;;;;;;;4.13;3.00;;;;;;;26.14;53.98;99420.00;6241689;28;20545;-87
2022/05/23 11:59:38;;;;;;;3.72;2.88;;;;;;;26.70;50.77;99399.25;6248696;28;20044;-87
2022/05/23 12:02:40;;;;;;;4.57;3.00;;;;;;;26.86;49.08;99400.16;6240934;28;20491;-87
2022/05/23 12:05:43;;;;;;;5.20;3.10;;;;;;;26.82;51.91;99393.75;6248470;28;20064;-87
2022/05/23 12:08:57;;;;;;;4.70;2.67;;;;;;;26.73;49.49;99398.75;6247606;28;20601;-87
2022/05/23 12:12:30;;;;;;;6.18;3.08;;;;;;;26.23;48.75;99389.28;6252740;28;20045;-87
2022/05/23 12:15:51;;;;;;;4.30;2.78;;;;;;;25.95;50.49;99377.13;6238733;28;20103;-87
2022/05/23 12:19:32;;;;;;;3.60;2.70;;;;;;;26.10;52.53;99377.25;6242652;28;20037;-87
2022/05/23 12:23:10;;;;;;;4.75;3.22;;;;;;;26.38;52.85;99378.00;6259912;28;20045;-87
2022/05/23 12:26:16;;;;;;;8.00;3.53;;;;;;;26.80;52.56;99370.09;6242989;28;20053;-87
2022/05/23 12:29:23;;;;;;;4.53;3.08;;;;;;;27.32;55.38;99365.09;6259357;28;20051;-88
2022/05/23 12:32:26;;;;;;;6.90;3.45;;;;;;;27.46;49.06;99360.88;6261167;28;20093;-87
2022/05/23 12:35:45;;;;;;;4.15;3.08;;;;;;;27.52;50.96;99353.72;6261862;28;20086;-86
2022/05/23 12:38:58;;;;;;;6.43;3.53;;;;;;;27.69;53.29;99348.97;6265073;28;20090;-86
2022/05/23 12:42:39;;;;;;;6.05;3.17;;;;;;;27.72;50.61;99340.47;6250270;28;20052;-86
2022/05/23 12:46:04;;;;;;;4.70;3.20;;;;;;;27.73;50.53;99323.47;6257359;28;20049;-86
2022/05/23 12:49:17;;;;;;;4.88;2.88;;;;;;;27.63;49.68;99320.78;6227051;28;20054;-86
2022/05/23 12:52:54;;;;;;;4.82;3.42;;;;;;;27.53;48.28;99318.09;6262283;28;20045;-86
2022/05/23 12:55:58;;;;;;;;;;;;;;;27.62;48.82;99314.66;6254176;28;20037;-86
2022/05/23 12:59:39;;;;;;;6.32;3.50;;;;;;;27.76;50.12;99298.19;6249300;28;19925;-86
2022/05/23 13:02:59;;;;;;;4.55;3.25;;;;;;;27.82;50.56;99305.94;6243501;28;20385;-85
2022/05/23 13:06:12;;;;;;;4.60;3.00;;;;;;;27.47;52.45;99298.69;6238908;28;20096;-86
2022/05/23 13:09:20;;;;;;;6.57;3.00;;;;;;;27.12;48.70;99286.84;6260871;28;20045;-85
2022/05/23 13:12:29;;;;;;;6.65;3.60;;;;;;;26.70;50.40;99284.28;6258350;28;20503;-86
2022/05/23 13:15:32;;;;;;;4.70;2.90;;;;;;;26.68;51.01;99289.84;6253071;28;20542;-87
2022/05/23 13:22:06;;;;;;;5.72;2.90;;;;;;;27.90;51.55;99285.97;6253066;28;20422;-85
2022/05/23 13:25:08;;;;;;;4.85;3.00;;;;;;;27.88;48.96;99275.63;6244049;28;20215;-86
2022/05/23 13:28:12;;;;;;;5.85;2.08;;;;;;;27.91;48.13;99277.75;6246438;28;20041;-86
2022/05/23 13:31:23;;;;;;;4.43;2.28;;;;;;;28.17;47.52;99271.63;6246126;28;20517;-86
2022/05/23 13:34:32;;;;;;;4.47;1.92;;;;;;;28.64;46.76;99260.63;6251650;28;20126;-86
2022/05/23 13:37:37;;;;;;;6.93;2.35;;;;;;;28.96;45.12;99257.56;6251572;28;20043;-86
2022/05/23 13:40:47;;;;;;;4.07;2.08;;;;;;;28.99;42.64;99253.53;6227948;28;20079;-86
2022/05/23 13:43:51;;;;;;;7.00;2.67;;;;;;;28.45;44.21;99243.66;6234583;28;20037;-86
2022/05/23 13:47:13;;;;;;;3.65;2.38;;;;;;;28.09;46.61;99247.13;6249388;28;20272;-86
2022/05/23 13:50:21;;;;;;;6.03;2.10;;;;;;;28.05;45.28;99230.13;6240796;28;20037;-86
2022/05/23 13:53:30;;;;;;;3.80;1.95;;;;;;;27.77;46.35;99222.66;6241887;28;20220;-86
2022/05/23 13:56:34;;;;;;;7.10;2.75;;;;;;;27.51;46.33;99217.34;6244425;28;20049;-86
2022/05/23 13:59:44;;;;;;;4.43;1.88;;;;;;;27.77;45.77;99212.03;6224037;28;20098;-88
2022/05/23 14:02:57;;;;;;;;;;;;;;;28.32;45.40;99210.38;6244879;28;20582;-88
2022/05/23 14:06:02;;;;;;;2.97;2.08;;;;;;;28.75;47.98;99200.13;6246446;28;19925;-88
2022/05/23 14:09:06;;;;;;;3.17;2.00;;;;;;;29.16;42.60;99199.94;6240853;28;20614;-88
2022/05/23 14:12:14;;;;;;;4.22;1.92;;;;;;;29.49;43.74;99192.22;6248663;28;20033;-89
2022/05/23 14:15:28;;;;;;;3.53;2.25;;;;;;;29.80;42.28;99190.91;6229803;28;20052;-88
2022/05/23 14:18:33;;;;;;;3.28;1.85;;;;;;;29.93;42.42;99184.13;6244001;28;20167;-87
2022/05/23 14:21:38;;;;;;;4.28;2.10;;;;;;;29.37;42.62;99176.59;6240829;28;20052;-88
2022/05/23 14:24:48;;;;;;;4.75;2.22;;;;;;;28.62;44.76;99174.91;6251515;28;20040;-87
2022/05/23 14:27:55;;;;;;;3.65;2.10;;;;;;;28.25;45.24;99169.97;6237259;28;20041;-88
2022/05/23 14:30:59;;;;;;;3.20;2.25;;;;;;;28.17;46.96;99173.94;6245395;28;20041;-88
2022/05/23 14:34:07;;;;;;;4.35;1.95;;;;;;;28.42;44.32;99159.78;6244024;28;20042;-88
2022/05/23 14:37:11;;;;;;;5.05;2.20;;;;;;;28.74;45.04;99150.59;6248707;28;20048;-87
2022/05/23 14:40:15;;;;;;;5.35;2.45;;;;;;;28.81;44.33;99140.44;6232620;28;20056;-88
2022/05/23 14:43:26;;;;;;;4.15;2.22;;;;;;;29.08;43.22;99139.22;6225139;28;20453;-88
2022/05/23 14:46:30;;;;;;;2.88;2.20;;;;;;;29.47;42.05;99133.06;6243961;28;20073;-87
2022/05/23 14:49:54;;;;;;;5.07;2.38;;;;;;;29.67;42.49;99124.13;6243655;28;20602;-89
2022/05/23 14:56:19;;;;;;;3.85;2.10;;;;;;;29.42;42.78;99126.69;6246501;28;20409;-87
2022/05/23 15:03:23;;;;;;;2.95;1.80;;;;;;;29.59;41.25;99114.78;6134405;29;20101;-88
2022/05/23 15:06:25;;;;;;;3.13;1.83;;;;;;;29.44;42.01;99109.59;6120099;29;20066;-88
2022/05/23 15:09:29;;;;;;;4.05;1.92;;;;;;;29.27;41.19;99110.84;6129741;28;20860;-88
2022/05/23 15:12:32;;;;;;;4.40;2.10;;;;;;;29.14;41.03;99098.13;6134165;29;20726;-88
2022/05/23 15:15:35;;;;;;;5.55;2.03;;;;;;;29.14;40.90;99092.81;6133347;28;20058;-88
2022/05/23 15:18:37;;;;;;;4.63;2.00;;;;;;;28.97;44.33;99091.31;6118664;29;20242;-88
2022/05/23 15:21:39;;;;;;;5.03;2.10;;;;;;;28.93;43.59;99084.94;6133365;28;20055;-88
2022/05/23 15:24:42;;;;;;;4.25;2.10;;;;;;;28.77;44.40;99075.47;6117346;28;20047;-88
2022/05/23 15:27:47;;;;;;;3.03;1.98;;;;;;;28.71;43.63;99065.91;6134706;29;20058;-87
2022/05/23 15:30:50;;;;;;;6.57;2.05;;;;;;;28.67;42.42;99064.88;6133941;28;20154;-87
2022/05/23 15:33:54;;;;;;;3.95;2.15;;;;;;;28.54;44.39;99055.63;6116777;29;20074;-88
2022/05/23 15:36:59;;;;;;;2.58;2.00;;;;;;;28.34;42.29;99062.63;6134594;28;20134;-87
2022/05/23 15:40:02;;;;;;;4.75;2.00;;;;;;;28.17;46.74;99056.06;6203280;28;20049;-88
2022/05/23 15:43:05;;;;;;;4.53;2.00;;;;;;;27.92;44.91;99047.94;6247020;28;20041;-87
2022/05/23 15:46:10;;;;;;;3.13;1.90;;;;;;;27.85;45.99;99039.47;6239215;28;20041;-87
2022/05/23 15:49:21;;;;;;;3.47;2.03;;;;;;;27.79;47.44;99040.50;6249703;28;20037;-87
2022/05/23 15:52:23;;;;;;;4.32;2.00;;;;;;;27.61;46.46;99033.13;6243778;28;20047;-87
2022/05/23 15:55:25;;;;;;;4.00;1.92;;;;;;;27.32;48.34;99022.28;6249935;28;20132;-86
2022/05/23 15:58:29;;;;;;;4.57;2.30;;;;;;;26.98;48.49;99015.66;6239424;28;20156;-87
2022/05/23 16:01:30;;;;;;;4.20;1.88;;;;;;;26.82;49.09;99016.69;6233524;28;20045;-87